PKWA/KWA METAR and TAF weather

Enter ICAO airport designator
Station Type Date Time Source
PKWA METAR 2020/07/03 13:20 UTC NOAA

PKWA 031320Z AUTO 17003KT 10SM BKN047 OVC095 28/25 A2988 RMK AO2 T02830252


Station Type Date Time Source
PKWA Decoded METAR 2020/07/03 13:20 UTC NOAA

Kwajalein, Bucholz AAF, Kwajalein KMR ATOL Airport, Marshall Islands (PKWA) 08-43N 167-44E 2M
Jul 03, 2020 - 09:20 AM EDT / 2020.07.03 1320 UTC
Wind: from the S (170 degrees) at 3 MPH (3 KT):0
Visibility: 10 mile(s):0
Sky conditions: overcast
Temperature: 82.9 F (28.3 C)
Dew Point: 77.4 F (25.2 C)
Relative Humidity: 83%
Pressure (altimeter): 29.88 in. Hg (1011 hPa)
ob: PKWA 031320Z AUTO 17003KT 10SM BKN047 OVC095 28/25 A2988 RMK AO2 T02830252
cycle: 13

Station Type Date Time Source
PKWA TAF 2020/07/03 12:30 UTC NOAA

TAF PKWA 031124Z 0312/0412 15008KT P6SM VCSH SCT020 BKN080
TEMPO 0314/0318 4SM SHRA SCT010 BKN020

Example: see airport list